sensor_id;sensor_type;location;lat;lon;timestamp;pressure;altitude;pressure_sealevel;temperature;humidity
54588;BME280;40484;50.198;19.576;2023-02-28T00:03:02;102843.82;;;4.87;38.84
54588;BME280;40484;50.198;19.576;2023-02-28T00:08:04;102841.78;;;4.88;38.83
54588;BME280;40484;50.198;19.576;2023-02-28T00:13:07;102839.44;;;4.83;39.02
54588;BME280;40484;50.198;19.576;2023-02-28T00:18:40;102845.84;;;4.76;39.06
54588;BME280;40484;50.198;19.576;2023-02-28T00:23:42;102843.58;;;4.68;39.34
54588;BME280;40484;50.198;19.576;2023-02-28T00:28:44;102830.55;;;4.64;39.52
54588;BME280;40484;50.198;19.576;2023-02-28T00:33:46;102840.48;;;4.54;39.62
54588;BME280;40484;50.198;19.576;2023-02-28T00:38:48;102839.06;;;4.39;39.59
54588;BME280;40484;50.198;19.576;2023-02-28T00:49:20;102845.48;;;4.18;39.94
54588;BME280;40484;50.198;19.576;2023-02-28T00:54:23;102839.95;;;4.15;39.96
54588;BME280;40484;50.198;19.576;2023-02-28T00:59:25;102847.01;;;4.09;40.29
54588;BME280;40484;50.198;19.576;2023-02-28T01:04:26;102843.05;;;3.98;40.43
54588;BME280;40484;50.198;19.576;2023-02-28T01:09:28;102852.60;;;3.89;40.75
54588;BME280;40484;50.198;19.576;2023-02-28T01:14:29;102852.02;;;3.89;40.83
54588;BME280;40484;50.198;19.576;2023-02-28T01:19:31;102847.14;;;4.08;40.93
54588;BME280;40484;50.198;19.576;2023-02-28T01:24:33;102843.41;;;4.21;41.00
54588;BME280;40484;50.198;19.576;2023-02-28T01:29:35;102837.98;;;4.13;41.08
54588;BME280;40484;50.198;19.576;2023-02-28T01:34:36;102835.77;;;4.14;41.29
54588;BME280;40484;50.198;19.576;2023-02-28T01:40:05;102841.13;;;4.07;41.33
54588;BME280;40484;50.198;19.576;2023-02-28T01:50:24;102844.20;;;4.24;41.68
54588;BME280;40484;50.198;19.576;2023-02-28T01:55:26;102849.77;;;4.32;41.66
54588;BME280;40484;50.198;19.576;2023-02-28T02:00:30;102845.19;;;4.31;41.59
54588;BME280;40484;50.198;19.576;2023-02-28T02:05:32;102835.56;;;4.36;41.71
54588;BME280;40484;50.198;19.576;2023-02-28T02:10:38;102830.29;;;4.40;41.76
54588;BME280;40484;50.198;19.576;2023-02-28T02:15:44;102828.03;;;4.44;41.69
54588;BME280;40484;50.198;19.576;2023-02-28T02:20:58;102823.78;;;4.35;41.88
54588;BME280;40484;50.198;19.576;2023-02-28T02:26:09;102820.35;;;4.14;41.95
54588;BME280;40484;50.198;19.576;2023-02-28T02:37:07;102820.61;;;3.97;41.77
54588;BME280;40484;50.198;19.576;2023-02-28T02:42:11;102826.38;;;3.70;41.83
54588;BME280;40484;50.198;19.576;2023-02-28T02:47:12;102820.55;;;3.58;42.00
54588;BME280;40484;50.198;19.576;2023-02-28T02:52:14;102810.48;;;3.52;42.02
54588;BME280;40484;50.198;19.576;2023-02-28T02:57:33;102816.93;;;3.46;42.22
54588;BME280;40484;50.198;19.576;2023-02-28T03:02:32;102822.81;;;3.24;42.21
54588;BME280;40484;50.198;19.576;2023-02-28T03:07:35;102818.58;;;3.06;42.44
54588;BME280;40484;50.198;19.576;2023-02-28T03:12:41;102828.25;;;2.96;42.63
54588;BME280;40484;50.198;19.576;2023-02-28T03:18:00;102818.70;;;3.07;42.56
54588;BME280;40484;50.198;19.576;2023-02-28T03:23:13;102822.02;;;2.91;42.68
54588;BME280;40484;50.198;19.576;2023-02-28T03:34:13;102825.07;;;2.72;42.92
54588;BME280;40484;50.198;19.576;2023-02-28T03:39:37;102845.01;;;2.65;43.03
54588;BME280;40484;50.198;19.576;2023-02-28T03:44:34;102840.91;;;2.53;43.31
54588;BME280;40484;50.198;19.576;2023-02-28T03:49:41;102835.39;;;2.47;43.38
54588;BME280;40484;50.198;19.576;2023-02-28T03:54:47;102842.67;;;2.51;43.37
54588;BME280;40484;50.198;19.576;2023-02-28T03:59:56;102840.87;;;2.46;43.22
54588;BME280;40484;50.198;19.576;2023-02-28T04:04:57;102846.01;;;2.39;43.33
54588;BME280;40484;50.198;19.576;2023-02-28T04:09:59;102847.78;;;2.16;43.49
54588;BME280;40484;50.198;19.576;2023-02-28T04:15:00;102847.63;;;2.08;43.55
54588;BME280;40484;50.198;19.576;2023-02-28T04:20:03;102849.94;;;1.96;43.72
54588;BME280;40484;50.198;19.576;2023-02-28T04:25:09;102860.79;;;1.90;43.85
54588;BME280;40484;50.198;19.576;2023-02-28T04:30:11;102872.24;;;1.92;43.82
54588;BME280;40484;50.198;19.576;2023-02-28T04:35:13;102863.11;;;1.97;43.72
54588;BME280;40484;50.198;19.576;2023-02-28T04:40:39;102864.52;;;2.09;43.56
54588;BME280;40484;50.198;19.576;2023-02-28T04:45:40;102877.73;;;2.20;43.44
54588;BME280;40484;50.198;19.576;2023-02-28T04:50:42;102876.60;;;2.30;43.26
54588;BME280;40484;50.198;19.576;2023-02-28T04:55:44;102876.41;;;2.34;43.12
54588;BME280;40484;50.198;19.576;2023-02-28T05:00:46;102878.04;;;2.30;42.96
54588;BME280;40484;50.198;19.576;2023-02-28T05:05:48;102881.14;;;2.24;42.96
54588;BME280;40484;50.198;19.576;2023-02-28T05:10:49;102875.04;;;2.07;43.06
54588;BME280;40484;50.198;19.576;2023-02-28T05:15:51;102882.16;;;1.91;43.00
54588;BME280;40484;50.198;19.576;2023-02-28T05:20:52;102885.06;;;1.64;43.36
54588;BME280;40484;50.198;19.576;2023-02-28T05:25:55;102883.48;;;1.65;43.52
54588;BME280;40484;50.198;19.576;2023-02-28T05:30:56;102890.78;;;1.64;43.58
54588;BME280;40484;50.198;19.576;2023-02-28T05:35:58;102900.17;;;1.72;43.55
54588;BME280;40484;50.198;19.576;2023-02-28T05:40:59;102903.11;;;1.55;43.65
54588;BME280;40484;50.198;19.576;2023-02-28T05:46:03;102903.47;;;1.60;43.69
54588;BME280;40484;50.198;19.576;2023-02-28T05:51:05;102906.41;;;1.67;43.64
54588;BME280;40484;50.198;19.576;2023-02-28T05:56:07;102914.66;;;1.74;43.63
54588;BME280;40484;50.198;19.576;2023-02-28T06:01:24;102926.98;;;1.77;43.67
54588;BME280;40484;50.198;19.576;2023-02-28T06:06:24;102920.75;;;1.91;43.77
54588;BME280;40484;50.198;19.576;2023-02-28T06:11:26;102922.31;;;2.05;43.70
54588;BME280;40484;50.198;19.576;2023-02-28T06:16:52;102928.77;;;2.16;43.79
54588;BME280;40484;50.198;19.576;2023-02-28T06:21:54;102930.45;;;2.29;43.85
54588;BME280;40484;50.198;19.576;2023-02-28T06:26:56;102937.83;;;2.47;43.88
54588;BME280;40484;50.198;19.576;2023-02-28T06:31:59;102939.70;;;2.57;43.97
54588;BME280;40484;50.198;19.576;2023-02-28T06:37:01;102933.50;;;2.59;44.29
54588;BME280;40484;50.198;19.576;2023-02-28T06:42:03;102936.52;;;2.87;44.12
54588;BME280;40484;50.198;19.576;2023-02-28T06:47:05;102936.40;;;3.04;44.25
54588;BME280;40484;50.198;19.576;2023-02-28T06:52:07;102943.97;;;3.16;44.39
54588;BME280;40484;50.198;19.576;2023-02-28T06:57:10;102952.69;;;3.34;44.16
54588;BME280;40484;50.198;19.576;2023-02-28T07:02:12;102947.25;;;3.49;43.99
54588;BME280;40484;50.198;19.576;2023-02-28T07:07:13;102953.48;;;3.56;43.91
54588;BME280;40484;50.198;19.576;2023-02-28T07:12:15;102947.31;;;3.77;43.39
54588;BME280;40484;50.198;19.576;2023-02-28T07:17:17;102964.08;;;4.02;43.23
54588;BME280;40484;50.198;19.576;2023-02-28T07:22:18;102960.17;;;4.12;42.63
54588;BME280;40484;50.198;19.576;2023-02-28T07:27:20;102961.85;;;4.06;42.68
54588;BME280;40484;50.198;19.576;2023-02-28T07:32:26;102964.58;;;4.07;42.62
54588;BME280;40484;50.198;19.576;2023-02-28T07:37:27;102969.74;;;4.21;42.54
54588;BME280;40484;50.198;19.576;2023-02-28T07:42:31;102973.06;;;4.35;42.35
54588;BME280;40484;50.198;19.576;2023-02-28T07:47:33;102966.38;;;4.44;42.41
54588;BME280;40484;50.198;19.576;2023-02-28T07:52:36;102963.55;;;4.48;42.14
54588;BME280;40484;50.198;19.576;2023-02-28T07:58:02;102963.71;;;4.27;41.79
54588;BME280;40484;50.198;19.576;2023-02-28T08:03:03;102973.81;;;4.34;41.67
54588;BME280;40484;50.198;19.576;2023-02-28T08:08:05;102964.30;;;4.47;41.55
54588;BME280;40484;50.198;19.576;2023-02-28T08:13:07;102968.12;;;4.63;41.61
54588;BME280;40484;50.198;19.576;2023-02-28T08:18:08;102960.35;;;4.75;41.11
54588;BME280;40484;50.198;19.576;2023-02-28T08:23:10;102974.76;;;4.82;41.30
54588;BME280;40484;50.198;19.576;2023-02-28T08:28:12;102973.18;;;4.55;41.39
54588;BME280;40484;50.198;19.576;2023-02-28T08:33:13;102974.84;;;4.66;41.86
54588;BME280;40484;50.198;19.576;2023-02-28T08:38:15;102979.41;;;4.73;41.74
54588;BME280;40484;50.198;19.576;2023-02-28T08:43:16;102977.02;;;4.78;41.42
54588;BME280;40484;50.198;19.576;2023-02-28T08:48:18;102975.04;;;4.94;41.45
54588;BME280;40484;50.198;19.576;2023-02-28T08:53:19;102970.07;;;5.15;41.01
54588;BME280;40484;50.198;19.576;2023-02-28T08:58:21;102967.14;;;5.45;40.77
54588;BME280;40484;50.198;19.576;2023-02-28T09:03:23;102969.47;;;5.38;39.93
54588;BME280;40484;50.198;19.576;2023-02-28T09:08:26;102973.18;;;5.35;40.17
54588;BME280;40484;50.198;19.576;2023-02-28T09:13:29;102974.52;;;5.44;40.08
54588;BME280;40484;50.198;19.576;2023-02-28T09:18:31;102973.27;;;5.14;39.33
54588;BME280;40484;50.198;19.576;2023-02-28T09:23:32;102974.18;;;5.23;39.23
54588;BME280;40484;50.198;19.576;2023-02-28T09:28:34;102977.16;;;5.43;39.08
54588;BME280;40484;50.198;19.576;2023-02-28T09:33:35;102979.28;;;5.22;39.05
54588;BME280;40484;50.198;19.576;2023-02-28T09:38:37;102974.79;;;5.34;39.02
54588;BME280;40484;50.198;19.576;2023-02-28T09:44:07;102973.02;;;5.47;39.09
54588;BME280;40484;50.198;19.576;2023-02-28T09:49:17;102979.42;;;5.28;39.06
54588;BME280;40484;50.198;19.576;2023-02-28T09:54:21;102991.73;;;5.49;38.88
54588;BME280;40484;50.198;19.576;2023-02-28T09:59:56;102982.52;;;5.85;38.38
54588;BME280;40484;50.198;19.576;2023-02-28T10:04:56;102984.38;;;5.81;37.57
54588;BME280;40484;50.198;19.576;2023-02-28T10:09:59;102984.98;;;5.69;37.02
54588;BME280;40484;50.198;19.576;2023-02-28T10:15:03;102982.12;;;6.16;37.82
54588;BME280;40484;50.198;19.576;2023-02-28T10:20:12;102982.12;;;5.96;37.25
54588;BME280;40484;50.198;19.576;2023-02-28T10:25:23;102974.22;;;6.15;38.14
54588;BME280;40484;50.198;19.576;2023-02-28T10:30:24;102967.86;;;6.40;37.01
54588;BME280;40484;50.198;19.576;2023-02-28T10:35:26;102966.58;;;6.43;36.75
54588;BME280;40484;50.198;19.576;2023-02-28T10:46:12;102955.73;;;6.62;36.82
54588;BME280;40484;50.198;19.576;2023-02-28T10:51:18;102946.09;;;6.88;36.43
54588;BME280;40484;50.198;19.576;2023-02-28T10:56:20;102941.65;;;6.73;36.02
54588;BME280;40484;50.198;19.576;2023-02-28T11:01:39;102938.02;;;7.09;36.43
54588;BME280;40484;50.198;19.576;2023-02-28T11:06:40;102933.94;;;7.28;35.54
54588;BME280;40484;50.198;19.576;2023-02-28T11:11:43;102933.31;;;7.33;36.78
54588;BME280;40484;50.198;19.576;2023-02-28T11:16:45;102930.29;;;7.61;35.80
54588;BME280;40484;50.198;19.576;2023-02-28T11:21:58;102925.91;;;7.79;34.94
54588;BME280;40484;50.198;19.576;2023-02-28T11:26:59;102918.36;;;7.63;34.42
54588;BME280;40484;50.198;19.576;2023-02-28T11:32:21;102911.51;;;7.35;33.75
54588;BME280;40484;50.198;19.576;2023-02-28T11:37:47;102904.53;;;7.36;34.51
54588;BME280;40484;50.198;19.576;2023-02-28T11:48:25;102897.36;;;7.70;34.16
54588;BME280;40484;50.198;19.576;2023-02-28T11:53:50;102886.29;;;7.91;34.71
54588;BME280;40484;50.198;19.576;2023-02-28T12:10:06;102889.43;;;7.97;34.59
54588;BME280;40484;50.198;19.576;2023-02-28T12:26:23;102887.26;;;7.85;34.84
54588;BME280;40484;50.198;19.576;2023-02-28T12:31:36;102890.39;;;7.67;34.74
54588;BME280;40484;50.198;19.576;2023-02-28T12:37:07;102891.41;;;7.67;34.15
54588;BME280;40484;50.198;19.576;2023-02-28T12:47:18;102886.85;;;8.14;34.71
54588;BME280;40484;50.198;19.576;2023-02-28T12:52:25;102885.35;;;8.13;34.51
54588;BME280;40484;50.198;19.576;2023-02-28T12:57:41;102882.14;;;8.25;34.67
54588;BME280;40484;50.198;19.576;2023-02-28T13:08:20;102875.96;;;7.92;34.57
54588;BME280;40484;50.198;19.576;2023-02-28T13:13:20;102881.77;;;8.11;34.79
54588;BME280;40484;50.198;19.576;2023-02-28T13:29:02;102872.11;;;8.62;33.99
54588;BME280;40484;50.198;19.576;2023-02-28T13:34:12;102868.62;;;8.69;34.08
54588;BME280;40484;50.198;19.576;2023-02-28T13:44:31;102867.06;;;8.16;34.39
54588;BME280;40484;50.198;19.576;2023-02-28T13:49:34;102864.16;;;8.40;34.25
54588;BME280;40484;50.198;19.576;2023-02-28T14:04:14;102847.84;;;8.41;34.40
54588;BME280;40484;50.198;19.576;2023-02-28T14:09:35;102845.57;;;8.32;34.27
54588;BME280;40484;50.198;19.576;2023-02-28T14:19:38;102833.66;;;7.95;35.05
54588;BME280;40484;50.198;19.576;2023-02-28T14:25:16;102835.85;;;7.88;35.05
54588;BME280;40484;50.198;19.576;2023-02-28T14:40:38;102834.59;;;7.64;35.28
54588;BME280;40484;50.198;19.576;2023-02-28T14:45:40;102823.00;;;7.68;35.48
54588;BME280;40484;50.198;19.576;2023-02-28T14:50:47;102827.10;;;7.63;35.36
54588;BME280;40484;50.198;19.576;2023-02-28T14:55:46;102828.37;;;7.63;35.65
54588;BME280;40484;50.198;19.576;2023-02-28T15:00:50;102836.45;;;7.68;35.78
54588;BME280;40484;50.198;19.576;2023-02-28T15:05:56;102828.84;;;7.70;35.47
54588;BME280;40484;50.198;19.576;2023-02-28T15:11:00;102830.30;;;7.70;35.19
54588;BME280;40484;50.198;19.576;2023-02-28T15:16:07;102831.84;;;7.72;35.32
54588;BME280;40484;50.198;19.576;2023-02-28T15:21:12;102837.15;;;7.61;35.10
54588;BME280;40484;50.198;19.576;2023-02-28T15:26:15;102833.11;;;7.53;35.22
54588;BME280;40484;50.198;19.576;2023-02-28T15:31:23;102835.84;;;7.50;35.34
54588;BME280;40484;50.198;19.576;2023-02-28T15:36:26;102832.46;;;7.43;35.04
54588;BME280;40484;50.198;19.576;2023-02-28T15:41:30;102835.66;;;7.46;35.03
54588;BME280;40484;50.198;19.576;2023-02-28T15:46:32;102831.94;;;7.37;34.87
54588;BME280;40484;50.198;19.576;2023-02-28T15:51:36;102829.58;;;7.30;35.09
54588;BME280;40484;50.198;19.576;2023-02-28T15:57:06;102831.34;;;7.42;35.19
54588;BME280;40484;50.198;19.576;2023-02-28T16:07:12;102835.81;;;7.26;35.81
54588;BME280;40484;50.198;19.576;2023-02-28T16:12:15;102837.02;;;7.16;36.23
54588;BME280;40484;50.198;19.576;2023-02-28T16:17:22;102831.59;;;7.02;36.35
54588;BME280;40484;50.198;19.576;2023-02-28T16:22:23;102837.57;;;6.92;36.79
54588;BME280;40484;50.198;19.576;2023-02-28T16:27:28;102834.07;;;6.84;37.06
54588;BME280;40484;50.198;19.576;2023-02-28T16:32:29;102830.25;;;6.78;36.94
54588;BME280;40484;50.198;19.576;2023-02-28T16:37:32;102837.98;;;6.71;36.99
54588;BME280;40484;50.198;19.576;2023-02-28T16:42:34;102838.93;;;6.56;36.98
54588;BME280;40484;50.198;19.576;2023-02-28T16:47:37;102836.11;;;6.49;37.24
54588;BME280;40484;50.198;19.576;2023-02-28T16:52:38;102849.87;;;6.35;37.58
54588;BME280;40484;50.198;19.576;2023-02-28T16:57:40;102849.52;;;6.23;37.79
54588;BME280;40484;50.198;19.576;2023-02-28T17:02:42;102854.36;;;6.21;37.90
54588;BME280;40484;50.198;19.576;2023-02-28T17:07:44;102851.30;;;6.17;37.84
54588;BME280;40484;50.198;19.576;2023-02-28T17:12:46;102852.47;;;6.08;37.85
54588;BME280;40484;50.198;19.576;2023-02-28T17:17:48;102863.82;;;5.95;38.17
54588;BME280;40484;50.198;19.576;2023-02-28T17:22:51;102864.88;;;5.93;38.50
54588;BME280;40484;50.198;19.576;2023-02-28T17:28:18;102860.67;;;5.99;38.65
54588;BME280;40484;50.198;19.576;2023-02-28T17:33:19;102859.66;;;6.03;38.47
54588;BME280;40484;50.198;19.576;2023-02-28T17:38:21;102858.50;;;5.89;38.86
54588;BME280;40484;50.198;19.576;2023-02-28T17:43:26;102859.20;;;5.74;39.24
54588;BME280;40484;50.198;19.576;2023-02-28T17:48:29;102855.10;;;5.55;39.41
54588;BME280;40484;50.198;19.576;2023-02-28T17:53:31;102855.79;;;5.37;39.58
54588;BME280;40484;50.198;19.576;2023-02-28T17:58:32;102853.55;;;5.38;39.85
54588;BME280;40484;50.198;19.576;2023-02-28T18:03:34;102856.40;;;5.41;39.89
54588;BME280;40484;50.198;19.576;2023-02-28T18:08:35;102858.19;;;5.32;40.09
54588;BME280;40484;50.198;19.576;2023-02-28T18:13:37;102860.70;;;5.14;40.18
54588;BME280;40484;50.198;19.576;2023-02-28T18:18:39;102858.34;;;5.12;40.34
54588;BME280;40484;50.198;19.576;2023-02-28T18:23:42;102862.02;;;5.08;40.44
54588;BME280;40484;50.198;19.576;2023-02-28T18:28:51;102855.20;;;4.99;40.62
54588;BME280;40484;50.198;19.576;2023-02-28T18:33:52;102854.16;;;4.88;40.82
54588;BME280;40484;50.198;19.576;2023-02-28T18:38:54;102859.02;;;4.90;40.92
54588;BME280;40484;50.198;19.576;2023-02-28T18:43:56;102849.02;;;5.03;40.96
54588;BME280;40484;50.198;19.576;2023-02-28T18:48:57;102853.23;;;5.02;41.17
54588;BME280;40484;50.198;19.576;2023-02-28T18:54:00;102852.26;;;5.02;41.15
54588;BME280;40484;50.198;19.576;2023-02-28T18:59:01;102840.59;;;4.89;41.36
54588;BME280;40484;50.198;19.576;2023-02-28T19:04:30;102832.77;;;4.85;41.29
54588;BME280;40484;50.198;19.576;2023-02-28T19:09:32;102839.00;;;4.78;41.53
54588;BME280;40484;50.198;19.576;2023-02-28T19:14:33;102841.64;;;4.70;41.72
54588;BME280;40484;50.198;19.576;2023-02-28T19:19:35;102842.20;;;4.66;41.90
54588;BME280;40484;50.198;19.576;2023-02-28T19:24:36;102846.25;;;4.71;42.07
54588;BME280;40484;50.198;19.576;2023-02-28T19:29:38;102851.95;;;4.67;42.01
54588;BME280;40484;50.198;19.576;2023-02-28T19:34:40;102851.05;;;4.69;41.94
54588;BME280;40484;50.198;19.576;2023-02-28T19:39:45;102853.30;;;4.47;42.08
54588;BME280;40484;50.198;19.576;2023-02-28T19:44:46;102849.13;;;4.35;42.36
54588;BME280;40484;50.198;19.576;2023-02-28T19:49:48;102841.98;;;4.33;42.41
54588;BME280;40484;50.198;19.576;2023-02-28T19:54:51;102844.25;;;4.22;42.33
54588;BME280;40484;50.198;19.576;2023-02-28T19:59:53;102838.21;;;4.21;42.50
54588;BME280;40484;50.198;19.576;2023-02-28T20:04:55;102848.96;;;4.36;42.42
54588;BME280;40484;50.198;19.576;2023-02-28T20:09:57;102850.04;;;4.40;42.23
54588;BME280;40484;50.198;19.576;2023-02-28T20:14:59;102856.45;;;4.37;42.33
54588;BME280;40484;50.198;19.576;2023-02-28T20:20:00;102862.28;;;4.21;42.37
54588;BME280;40484;50.198;19.576;2023-02-28T20:25:02;102864.97;;;3.96;42.46
54588;BME280;40484;50.198;19.576;2023-02-28T20:30:05;102864.82;;;3.97;42.56
54588;BME280;40484;50.198;19.576;2023-02-28T20:35:07;102850.67;;;4.05;42.55
54588;BME280;40484;50.198;19.576;2023-02-28T20:40:11;102847.12;;;3.97;42.57
54588;BME280;40484;50.198;19.576;2023-02-28T20:45:38;102842.15;;;3.86;42.60
54588;BME280;40484;50.198;19.576;2023-02-28T20:50:40;102844.55;;;3.95;42.62
54588;BME280;40484;50.198;19.576;2023-02-28T20:55:41;102841.89;;;3.85;42.66
54588;BME280;40484;50.198;19.576;2023-02-28T21:00:44;102841.84;;;3.81;42.70
54588;BME280;40484;50.198;19.576;2023-02-28T21:05:46;102844.23;;;3.90;42.71
54588;BME280;40484;50.198;19.576;2023-02-28T21:10:48;102834.14;;;3.90;42.70
54588;BME280;40484;50.198;19.576;2023-02-28T21:15:49;102832.14;;;3.90;42.65
54588;BME280;40484;50.198;19.576;2023-02-28T21:20:51;102827.19;;;3.73;42.81
